Airport View

Enter AWOS ICAO identifier for current METAR.

ex. KFNL

KIKV 300415Z AUTO 00000KT 10SM BKN085 OVC110 01/M03 A3020 RMK AO2

30 Oct 2020 04:15

Frequency: 119.175

Phone: 515-965-5764

Other Area AWOS: KDSM - KAMW - KTNU - KBNW

TAF KDSM 292320Z 3000/3024 36007KT P6SM SCT025 BKN035 FM300200 34004KT P6SM FEW070 FM300900 14005KT P6SM FEW070